sensor_id;sensor_type;location;lat;lon;timestamp;temperature;humidity
54192;DHT22;40101;53.002;6.488;2022-08-21T00:02:23;15.70;99.90
54192;DHT22;40101;53.002;6.488;2022-08-21T00:04:50;15.60;99.90
54192;DHT22;40101;53.002;6.488;2022-08-21T00:07:17;15.60;99.90
54192;DHT22;40101;53.002;6.488;2022-08-21T00:09:43;15.50;99.90
54192;DHT22;40101;53.002;6.488;2022-08-21T00:12:09;15.50;99.90
54192;DHT22;40101;53.002;6.488;2022-08-21T00:14:35;15.50;99.90
54192;DHT22;40101;53.002;6.488;2022-08-21T00:17:01;15.40;99.90
54192;DHT22;40101;53.002;6.488;2022-08-21T00:19:27;15.40;99.90
54192;DHT22;40101;53.002;6.488;2022-08-21T00:21:54;15.40;99.90
54192;DHT22;40101;53.002;6.488;2022-08-21T00:24:21;15.30;99.90
54192;DHT22;40101;53.002;6.488;2022-08-21T00:26:48;15.30;99.90
54192;DHT22;40101;53.002;6.488;2022-08-21T00:29:13;15.20;99.90
54192;DHT22;40101;53.002;6.488;2022-08-21T00:31:40;15.20;99.90
54192;DHT22;40101;53.002;6.488;2022-08-21T00:34:07;15.00;99.90
54192;DHT22;40101;53.002;6.488;2022-08-21T00:36:33;15.00;99.90
54192;DHT22;40101;53.002;6.488;2022-08-21T00:38:59;14.90;99.90
54192;DHT22;40101;53.002;6.488;2022-08-21T00:41:25;14.80;99.90
54192;DHT22;40101;53.002;6.488;2022-08-21T00:43:52;14.70;99.90
54192;DHT22;40101;53.002;6.488;2022-08-21T00:46:18;14.70;99.90
54192;DHT22;40101;53.002;6.488;2022-08-21T00:48:44;14.60;99.90
54192;DHT22;40101;53.002;6.488;2022-08-21T00:51:13;14.60;99.90
54192;DHT22;40101;53.002;6.488;2022-08-21T00:53:42;14.50;99.90
54192;DHT22;40101;53.002;6.488;2022-08-21T00:56:10;14.50;99.90
54192;DHT22;40101;53.002;6.488;2022-08-21T00:58:40;14.50;99.90
54192;DHT22;40101;53.002;6.488;2022-08-21T01:01:07;14.40;99.90
54192;DHT22;40101;53.002;6.488;2022-08-21T01:03:34;14.40;99.90
54192;DHT22;40101;53.002;6.488;2022-08-21T01:05:59;14.30;99.90
54192;DHT22;40101;53.002;6.488;2022-08-21T01:08:26;14.30;99.90
54192;DHT22;40101;53.002;6.488;2022-08-21T01:10:54;14.30;99.90
54192;DHT22;40101;53.002;6.488;2022-08-21T01:13:21;14.20;99.90
54192;DHT22;40101;53.002;6.488;2022-08-21T01:15:50;14.20;99.90
54192;DHT22;40101;53.002;6.488;2022-08-21T01:18:19;14.20;99.90
54192;DHT22;40101;53.002;6.488;2022-08-21T01:23:28;14.30;99.90
54192;DHT22;40101;53.002;6.488;2022-08-21T01:25:54;14.20;99.90
54192;DHT22;40101;53.002;6.488;2022-08-21T01:28:21;14.20;99.90
54192;DHT22;40101;53.002;6.488;2022-08-21T01:30:48;14.10;99.90
54192;DHT22;40101;53.002;6.488;2022-08-21T01:33:18;14.10;99.90
54192;DHT22;40101;53.002;6.488;2022-08-21T01:35:45;14.10;99.90
54192;DHT22;40101;53.002;6.488;2022-08-21T01:38:11;14.10;99.90
54192;DHT22;40101;53.002;6.488;2022-08-21T01:40:37;14.10;99.90
54192;DHT22;40101;53.002;6.488;2022-08-21T01:43:03;14.10;99.90
54192;DHT22;40101;53.002;6.488;2022-08-21T01:45:29;14.20;99.90
54192;DHT22;40101;53.002;6.488;2022-08-21T01:47:55;14.20;99.90
54192;DHT22;40101;53.002;6.488;2022-08-21T01:50:21;14.30;99.90
54192;DHT22;40101;53.002;6.488;2022-08-21T01:52:47;14.30;99.90
54192;DHT22;40101;53.002;6.488;2022-08-21T01:55:14;14.30;99.90
54192;DHT22;40101;53.002;6.488;2022-08-21T01:57:40;14.30;99.90
54192;DHT22;40101;53.002;6.488;2022-08-21T02:00:09;14.30;99.90
54192;DHT22;40101;53.002;6.488;2022-08-21T02:02:36;14.30;99.90
54192;DHT22;40101;53.002;6.488;2022-08-21T02:05:03;14.30;99.90
54192;DHT22;40101;53.002;6.488;2022-08-21T02:07:39;14.30;99.90
54192;DHT22;40101;53.002;6.488;2022-08-21T02:10:07;14.30;99.90
54192;DHT22;40101;53.002;6.488;2022-08-21T02:12:33;14.30;99.90
54192;DHT22;40101;53.002;6.488;2022-08-21T02:14:58;14.30;99.90
54192;DHT22;40101;53.002;6.488;2022-08-21T02:17:24;14.30;99.90
54192;DHT22;40101;53.002;6.488;2022-08-21T02:19:50;14.30;99.90
54192;DHT22;40101;53.002;6.488;2022-08-21T02:22:15;14.20;99.90
54192;DHT22;40101;53.002;6.488;2022-08-21T02:24:41;14.20;99.90
54192;DHT22;40101;53.002;6.488;2022-08-21T02:27:06;14.20;99.90
54192;DHT22;40101;53.002;6.488;2022-08-21T02:29:32;14.10;99.90
54192;DHT22;40101;53.002;6.488;2022-08-21T02:31:58;14.10;99.90
54192;DHT22;40101;53.002;6.488;2022-08-21T02:34:24;14.10;99.90
54192;DHT22;40101;53.002;6.488;2022-08-21T02:36:50;14.10;99.90
54192;DHT22;40101;53.002;6.488;2022-08-21T02:39:16;14.10;99.90
54192;DHT22;40101;53.002;6.488;2022-08-21T02:41:42;14.10;99.90
54192;DHT22;40101;53.002;6.488;2022-08-21T02:44:08;14.10;99.90
54192;DHT22;40101;53.002;6.488;2022-08-21T02:46:34;14.10;99.90
54192;DHT22;40101;53.002;6.488;2022-08-21T02:48:59;14.10;99.90
54192;DHT22;40101;53.002;6.488;2022-08-21T02:51:25;14.00;99.90
54192;DHT22;40101;53.002;6.488;2022-08-21T02:53:51;14.00;99.90
54192;DHT22;40101;53.002;6.488;2022-08-21T02:56:19;14.00;99.90
54192;DHT22;40101;53.002;6.488;2022-08-21T02:58:48;14.00;99.90
54192;DHT22;40101;53.002;6.488;2022-08-21T03:01:15;14.00;99.90
54192;DHT22;40101;53.002;6.488;2022-08-21T03:03:42;14.00;99.90
54192;DHT22;40101;53.002;6.488;2022-08-21T03:06:11;13.90;99.90
54192;DHT22;40101;53.002;6.488;2022-08-21T03:08:38;13.90;99.90
54192;DHT22;40101;53.002;6.488;2022-08-21T03:11:04;13.80;99.90
54192;DHT22;40101;53.002;6.488;2022-08-21T03:13:30;13.80;99.90
54192;DHT22;40101;53.002;6.488;2022-08-21T03:15:56;13.80;99.90
54192;DHT22;40101;53.002;6.488;2022-08-21T03:18:22;13.90;99.90
54192;DHT22;40101;53.002;6.488;2022-08-21T03:20:47;13.80;99.90
54192;DHT22;40101;53.002;6.488;2022-08-21T03:23:15;13.70;99.90
54192;DHT22;40101;53.002;6.488;2022-08-21T03:25:41;13.70;99.90
54192;DHT22;40101;53.002;6.488;2022-08-21T03:28:19;13.70;99.90
54192;DHT22;40101;53.002;6.488;2022-08-21T03:30:46;13.80;99.90
54192;DHT22;40101;53.002;6.488;2022-08-21T03:33:13;13.70;99.90
54192;DHT22;40101;53.002;6.488;2022-08-21T03:35:39;13.80;99.90
54192;DHT22;40101;53.002;6.488;2022-08-21T03:38:05;13.70;99.90
54192;DHT22;40101;53.002;6.488;2022-08-21T03:40:31;13.70;99.90
54192;DHT22;40101;53.002;6.488;2022-08-21T03:42:57;13.60;99.90
54192;DHT22;40101;53.002;6.488;2022-08-21T03:45:24;13.60;99.90
54192;DHT22;40101;53.002;6.488;2022-08-21T03:48:01;13.60;99.90
54192;DHT22;40101;53.002;6.488;2022-08-21T03:50:33;13.60;99.90
54192;DHT22;40101;53.002;6.488;2022-08-21T03:52:59;13.60;99.90
54192;DHT22;40101;53.002;6.488;2022-08-21T03:55:26;13.60;99.90
54192;DHT22;40101;53.002;6.488;2022-08-21T03:57:52;13.60;99.90
54192;DHT22;40101;53.002;6.488;2022-08-21T04:00:19;13.60;99.90
54192;DHT22;40101;53.002;6.488;2022-08-21T04:02:46;13.60;99.90
54192;DHT22;40101;53.002;6.488;2022-08-21T04:05:13;13.50;99.90
54192;DHT22;40101;53.002;6.488;2022-08-21T04:07:39;13.50;99.90
54192;DHT22;40101;53.002;6.488;2022-08-21T04:10:06;13.50;99.90
54192;DHT22;40101;53.002;6.488;2022-08-21T04:12:32;13.50;99.90
54192;DHT22;40101;53.002;6.488;2022-08-21T04:14:58;13.50;99.90
54192;DHT22;40101;53.002;6.488;2022-08-21T04:17:24;13.50;99.90
54192;DHT22;40101;53.002;6.488;2022-08-21T04:19:49;13.50;99.90
54192;DHT22;40101;53.002;6.488;2022-08-21T04:22:15;13.50;99.90
54192;DHT22;40101;53.002;6.488;2022-08-21T04:24:41;13.60;99.90
54192;DHT22;40101;53.002;6.488;2022-08-21T04:27:07;13.60;99.90
54192;DHT22;40101;53.002;6.488;2022-08-21T04:29:32;13.60;99.90
54192;DHT22;40101;53.002;6.488;2022-08-21T04:31:58;13.60;99.90
54192;DHT22;40101;53.002;6.488;2022-08-21T04:34:24;13.60;99.90
54192;DHT22;40101;53.002;6.488;2022-08-21T04:36:50;13.60;99.90
54192;DHT22;40101;53.002;6.488;2022-08-21T04:39:16;13.70;99.90
54192;DHT22;40101;53.002;6.488;2022-08-21T04:41:41;13.70;99.90
54192;DHT22;40101;53.002;6.488;2022-08-21T04:44:07;13.80;99.90
54192;DHT22;40101;53.002;6.488;2022-08-21T04:46:34;13.90;99.90
54192;DHT22;40101;53.002;6.488;2022-08-21T04:49:00;14.00;99.90
54192;DHT22;40101;53.002;6.488;2022-08-21T04:51:34;14.20;99.90
54192;DHT22;40101;53.002;6.488;2022-08-21T04:54:11;14.60;99.90
54192;DHT22;40101;53.002;6.488;2022-08-21T04:56:41;14.90;99.90
54192;DHT22;40101;53.002;6.488;2022-08-21T04:59:17;15.10;99.90
54192;DHT22;40101;53.002;6.488;2022-08-21T05:01:45;15.50;99.90
54192;DHT22;40101;53.002;6.488;2022-08-21T05:04:13;16.00;99.90
54192;DHT22;40101;53.002;6.488;2022-08-21T05:06:41;16.70;99.90
54192;DHT22;40101;53.002;6.488;2022-08-21T05:09:09;17.30;99.90
54192;DHT22;40101;53.002;6.488;2022-08-21T05:11:38;17.90;99.90
54192;DHT22;40101;53.002;6.488;2022-08-21T05:14:04;18.40;99.90
54192;DHT22;40101;53.002;6.488;2022-08-21T05:16:29;18.90;99.90
54192;DHT22;40101;53.002;6.488;2022-08-21T05:18:55;19.30;99.90
54192;DHT22;40101;53.002;6.488;2022-08-21T05:21:21;19.50;99.90
54192;DHT22;40101;53.002;6.488;2022-08-21T05:23:46;19.20;99.90
54192;DHT22;40101;53.002;6.488;2022-08-21T05:26:12;18.90;99.90
54192;DHT22;40101;53.002;6.488;2022-08-21T05:28:38;18.50;99.90
54192;DHT22;40101;53.002;6.488;2022-08-21T05:31:03;18.10;99.90
54192;DHT22;40101;53.002;6.488;2022-08-21T05:33:29;17.90;99.90
54192;DHT22;40101;53.002;6.488;2022-08-21T05:35:56;17.60;99.90
54192;DHT22;40101;53.002;6.488;2022-08-21T05:38:23;17.40;99.90
54192;DHT22;40101;53.002;6.488;2022-08-21T05:40:49;17.20;99.90
54192;DHT22;40101;53.002;6.488;2022-08-21T05:43:15;17.00;99.90
54192;DHT22;40101;53.002;6.488;2022-08-21T05:45:41;16.90;99.90
54192;DHT22;40101;53.002;6.488;2022-08-21T05:48:08;16.90;99.90
54192;DHT22;40101;53.002;6.488;2022-08-21T05:50:35;17.50;99.90
54192;DHT22;40101;53.002;6.488;2022-08-21T05:53:02;18.20;99.90
54192;DHT22;40101;53.002;6.488;2022-08-21T05:55:28;18.60;99.90
54192;DHT22;40101;53.002;6.488;2022-08-21T05:57:54;18.50;99.90
54192;DHT22;40101;53.002;6.488;2022-08-21T06:00:20;18.40;99.90
54192;DHT22;40101;53.002;6.488;2022-08-21T06:02:49;18.90;99.90
54192;DHT22;40101;53.002;6.488;2022-08-21T06:05:16;19.30;99.90
54192;DHT22;40101;53.002;6.488;2022-08-21T06:07:42;19.10;99.90
54192;DHT22;40101;53.002;6.488;2022-08-21T06:10:08;18.90;99.90
54192;DHT22;40101;53.002;6.488;2022-08-21T06:12:33;18.80;99.90
54192;DHT22;40101;53.002;6.488;2022-08-21T06:14:59;18.50;99.90
54192;DHT22;40101;53.002;6.488;2022-08-21T06:17:25;18.30;99.90
54192;DHT22;40101;53.002;6.488;2022-08-21T06:19:54;18.20;99.90
54192;DHT22;40101;53.002;6.488;2022-08-21T06:22:20;18.30;99.90
54192;DHT22;40101;53.002;6.488;2022-08-21T06:24:46;18.30;99.90
54192;DHT22;40101;53.002;6.488;2022-08-21T06:27:12;18.30;99.90
54192;DHT22;40101;53.002;6.488;2022-08-21T06:29:37;18.20;99.90
54192;DHT22;40101;53.002;6.488;2022-08-21T06:32:04;18.30;99.90
54192;DHT22;40101;53.002;6.488;2022-08-21T06:34:32;18.40;99.90
54192;DHT22;40101;53.002;6.488;2022-08-21T06:36:57;18.40;99.90
54192;DHT22;40101;53.002;6.488;2022-08-21T06:39:23;18.30;99.90
54192;DHT22;40101;53.002;6.488;2022-08-21T06:41:48;18.30;99.90
54192;DHT22;40101;53.002;6.488;2022-08-21T06:44:16;18.30;99.90
54192;DHT22;40101;53.002;6.488;2022-08-21T06:46:42;18.20;99.90
54192;DHT22;40101;53.002;6.488;2022-08-21T06:49:08;18.20;99.90
54192;DHT22;40101;53.002;6.488;2022-08-21T06:51:33;18.30;99.90
54192;DHT22;40101;53.002;6.488;2022-08-21T06:53:59;18.30;99.90
54192;DHT22;40101;53.002;6.488;2022-08-21T06:56:25;18.40;99.90
54192;DHT22;40101;53.002;6.488;2022-08-21T06:58:55;18.70;99.90
54192;DHT22;40101;53.002;6.488;2022-08-21T07:01:24;18.90;99.90
54192;DHT22;40101;53.002;6.488;2022-08-21T07:03:50;18.90;99.90
54192;DHT22;40101;53.002;6.488;2022-08-21T07:06:16;18.90;99.90
54192;DHT22;40101;53.002;6.488;2022-08-21T07:08:42;19.00;99.90
54192;DHT22;40101;53.002;6.488;2022-08-21T07:11:18;19.00;99.90
54192;DHT22;40101;53.002;6.488;2022-08-21T07:13:44;19.10;99.90
54192;DHT22;40101;53.002;6.488;2022-08-21T07:16:10;19.20;99.90
54192;DHT22;40101;53.002;6.488;2022-08-21T07:18:36;19.40;99.90
54192;DHT22;40101;53.002;6.488;2022-08-21T07:21:03;19.70;99.90
54192;DHT22;40101;53.002;6.488;2022-08-21T07:23:32;20.30;99.90
54192;DHT22;40101;53.002;6.488;2022-08-21T07:25:59;21.70;99.90
54192;DHT22;40101;53.002;6.488;2022-08-21T07:28:26;23.00;99.90
54192;DHT22;40101;53.002;6.488;2022-08-21T07:30:54;24.00;99.90
54192;DHT22;40101;53.002;6.488;2022-08-21T07:33:21;24.90;99.90
54192;DHT22;40101;53.002;6.488;2022-08-21T07:35:47;25.50;99.90
54192;DHT22;40101;53.002;6.488;2022-08-21T07:38:13;26.00;99.90
54192;DHT22;40101;53.002;6.488;2022-08-21T07:40:38;26.60;99.90
54192;DHT22;40101;53.002;6.488;2022-08-21T07:43:04;27.00;99.50
54192;DHT22;40101;53.002;6.488;2022-08-21T07:45:30;27.20;97.00
54192;DHT22;40101;53.002;6.488;2022-08-21T07:47:56;27.50;95.10
54192;DHT22;40101;53.002;6.488;2022-08-21T07:50:21;27.70;94.00
54192;DHT22;40101;53.002;6.488;2022-08-21T07:52:47;28.00;92.90
54192;DHT22;40101;53.002;6.488;2022-08-21T07:55:16;28.20;91.40
54192;DHT22;40101;53.002;6.488;2022-08-21T07:57:42;28.40;90.40
54192;DHT22;40101;53.002;6.488;2022-08-21T08:00:15;28.50;88.70
54192;DHT22;40101;53.002;6.488;2022-08-21T08:02:43;28.50;85.20
54192;DHT22;40101;53.002;6.488;2022-08-21T08:05:11;28.40;85.30
54192;DHT22;40101;53.002;6.488;2022-08-21T08:07:37;28.70;84.40
54192;DHT22;40101;53.002;6.488;2022-08-21T08:10:05;28.70;82.20
54192;DHT22;40101;53.002;6.488;2022-08-21T08:12:33;28.60;80.30
54192;DHT22;40101;53.002;6.488;2022-08-21T08:15:00;28.50;79.60
54192;DHT22;40101;53.002;6.488;2022-08-21T08:17:26;28.40;79.40
54192;DHT22;40101;53.002;6.488;2022-08-21T08:19:52;28.40;79.10
54192;DHT22;40101;53.002;6.488;2022-08-21T08:22:21;28.40;78.20
54192;DHT22;40101;53.002;6.488;2022-08-21T08:24:49;28.70;77.90
54192;DHT22;40101;53.002;6.488;2022-08-21T08:27:16;28.80;78.00
54192;DHT22;40101;53.002;6.488;2022-08-21T08:29:42;29.00;75.00
54192;DHT22;40101;53.002;6.488;2022-08-21T08:32:08;29.00;74.70
54192;DHT22;40101;53.002;6.488;2022-08-21T08:34:35;29.20;76.20
54192;DHT22;40101;53.002;6.488;2022-08-21T08:37:01;29.30;74.50
54192;DHT22;40101;53.002;6.488;2022-08-21T08:39:28;29.40;74.90
54192;DHT22;40101;53.002;6.488;2022-08-21T08:42:16;29.70;74.20
54192;DHT22;40101;53.002;6.488;2022-08-21T08:44:45;29.70;73.20
54192;DHT22;40101;53.002;6.488;2022-08-21T08:47:13;29.90;74.10
54192;DHT22;40101;53.002;6.488;2022-08-21T08:50:06;29.90;72.90
54192;DHT22;40101;53.002;6.488;2022-08-21T08:52:41;30.00;72.20
54192;DHT22;40101;53.002;6.488;2022-08-21T08:55:15;29.90;71.80
54192;DHT22;40101;53.002;6.488;2022-08-21T08:57:45;29.90;72.70
54192;DHT22;40101;53.002;6.488;2022-08-21T09:00:16;29.80;72.30
54192;DHT22;40101;53.002;6.488;2022-08-21T09:02:43;29.80;73.00
54192;DHT22;40101;53.002;6.488;2022-08-21T09:08:26;29.90;73.40
54192;DHT22;40101;53.002;6.488;2022-08-21T09:11:08;30.10;72.30
54192;DHT22;40101;53.002;6.488;2022-08-21T09:13:55;30.10;71.80
54192;DHT22;40101;53.002;6.488;2022-08-21T09:16:46;30.10;72.00
54192;DHT22;40101;53.002;6.488;2022-08-21T09:27:25;30.50;71.70
54192;DHT22;40101;53.002;6.488;2022-08-21T09:29:53;30.20;72.20
54192;DHT22;40101;53.002;6.488;2022-08-21T09:32:22;30.40;72.30
54192;DHT22;40101;53.002;6.488;2022-08-21T09:35:13;30.50;71.70
54192;DHT22;40101;53.002;6.488;2022-08-21T09:38:03;30.20;71.00
54192;DHT22;40101;53.002;6.488;2022-08-21T09:40:44;30.20;71.70
54192;DHT22;40101;53.002;6.488;2022-08-21T09:43:22;30.30;72.10
54192;DHT22;40101;53.002;6.488;2022-08-21T09:46:07;30.20;71.40
54192;DHT22;40101;53.002;6.488;2022-08-21T09:48:45;29.70;71.20
54192;DHT22;40101;53.002;6.488;2022-08-21T09:51:17;29.60;72.30
54192;DHT22;40101;53.002;6.488;2022-08-21T09:53:47;29.90;73.10
54192;DHT22;40101;53.002;6.488;2022-08-21T09:56:25;29.80;74.40
54192;DHT22;40101;53.002;6.488;2022-08-21T10:01:48;29.20;77.10
54192;DHT22;40101;53.002;6.488;2022-08-21T10:04:15;28.80;77.20
54192;DHT22;40101;53.002;6.488;2022-08-21T10:06:44;28.20;78.10
54192;DHT22;40101;53.002;6.488;2022-08-21T10:09:15;27.70;79.80
54192;DHT22;40101;53.002;6.488;2022-08-21T10:12:30;27.20;81.40
54192;DHT22;40101;53.002;6.488;2022-08-21T10:17:44;25.90;84.60
54192;DHT22;40101;53.002;6.488;2022-08-21T10:20:20;26.30;85.10
54192;DHT22;40101;53.002;6.488;2022-08-21T10:23:28;27.40;82.00
54192;DHT22;40101;53.002;6.488;2022-08-21T10:26:02;28.50;78.70
54192;DHT22;40101;53.002;6.488;2022-08-21T10:36:44;29.90;72.70
54192;DHT22;40101;53.002;6.488;2022-08-21T10:39:24;30.10;71.60
54192;DHT22;40101;53.002;6.488;2022-08-21T10:42:14;29.70;70.30
54192;DHT22;40101;53.002;6.488;2022-08-21T10:44:58;29.30;73.80
54192;DHT22;40101;53.002;6.488;2022-08-21T10:47:46;29.00;74.00
54192;DHT22;40101;53.002;6.488;2022-08-21T10:50:19;28.70;73.40
54192;DHT22;40101;53.002;6.488;2022-08-21T10:55:50;28.40;76.50
54192;DHT22;40101;53.002;6.488;2022-08-21T10:58:29;28.40;74.00
54192;DHT22;40101;53.002;6.488;2022-08-21T11:01:13;28.10;74.10
54192;DHT22;40101;53.002;6.488;2022-08-21T11:03:44;27.90;75.50
54192;DHT22;40101;53.002;6.488;2022-08-21T11:06:30;27.70;75.90
54192;DHT22;40101;53.002;6.488;2022-08-21T11:09:29;27.50;77.40
54192;DHT22;40101;53.002;6.488;2022-08-21T11:17:37;27.00;76.10
54192;DHT22;40101;53.002;6.488;2022-08-21T11:20:29;26.60;76.60
54192;DHT22;40101;53.002;6.488;2022-08-21T11:23:09;26.40;77.80
54192;DHT22;40101;53.002;6.488;2022-08-21T11:25:41;26.10;78.40
54192;DHT22;40101;53.002;6.488;2022-08-21T11:28:27;26.00;80.80
54192;DHT22;40101;53.002;6.488;2022-08-21T11:31:11;26.00;79.80
54192;DHT22;40101;53.002;6.488;2022-08-21T11:36:46;25.90;82.50
54192;DHT22;40101;53.002;6.488;2022-08-21T11:39:22;25.90;81.90
54192;DHT22;40101;53.002;6.488;2022-08-21T11:42:15;25.80;84.90
54192;DHT22;40101;53.002;6.488;2022-08-21T11:50:27;25.30;87.20
54192;DHT22;40101;53.002;6.488;2022-08-21T11:53:15;25.20;89.30
54192;DHT22;40101;53.002;6.488;2022-08-21T11:56:35;25.10;89.70
54192;DHT22;40101;53.002;6.488;2022-08-21T11:58:48;25.20;90.30
54192;DHT22;40101;53.002;6.488;2022-08-21T12:01:25;25.40;90.40
54192;DHT22;40101;53.002;6.488;2022-08-21T12:04:08;25.50;89.60
54192;DHT22;40101;53.002;6.488;2022-08-21T12:06:40;25.40;91.00
54192;DHT22;40101;53.002;6.488;2022-08-21T12:12:10;25.30;92.10
54192;DHT22;40101;53.002;6.488;2022-08-21T12:17:06;25.20;92.90
54192;DHT22;40101;53.002;6.488;2022-08-21T12:19:33;25.10;93.10
54192;DHT22;40101;53.002;6.488;2022-08-21T12:24:48;25.30;92.60
54192;DHT22;40101;53.002;6.488;2022-08-21T12:29:52;25.40;93.00
54192;DHT22;40101;53.002;6.488;2022-08-21T12:32:24;25.40;93.30
54192;DHT22;40101;53.002;6.488;2022-08-21T12:35:07;25.30;93.40
54192;DHT22;40101;53.002;6.488;2022-08-21T12:37:47;25.30;93.20
54192;DHT22;40101;53.002;6.488;2022-08-21T12:40:31;25.10;93.90
54192;DHT22;40101;53.002;6.488;2022-08-21T12:43:00;24.90;94.10
54192;DHT22;40101;53.002;6.488;2022-08-21T12:45:53;24.70;93.80
54192;DHT22;40101;53.002;6.488;2022-08-21T12:48:42;24.50;94.10
54192;DHT22;40101;53.002;6.488;2022-08-21T12:51:16;24.30;93.80
54192;DHT22;40101;53.002;6.488;2022-08-21T12:53:49;24.10;94.90
54192;DHT22;40101;53.002;6.488;2022-08-21T12:56:24;24.00;94.30
54192;DHT22;40101;53.002;6.488;2022-08-21T12:58:54;24.10;95.30
54192;DHT22;40101;53.002;6.488;2022-08-21T13:01:36;24.20;95.40
54192;DHT22;40101;53.002;6.488;2022-08-21T13:04:10;24.40;94.20
54192;DHT22;40101;53.002;6.488;2022-08-21T13:06:40;24.60;94.00
54192;DHT22;40101;53.002;6.488;2022-08-21T13:09:12;24.60;94.20
54192;DHT22;40101;53.002;6.488;2022-08-21T13:11:41;24.70;95.20
54192;DHT22;40101;53.002;6.488;2022-08-21T13:14:25;24.80;93.80
54192;DHT22;40101;53.002;6.488;2022-08-21T13:16:57;24.80;93.70
54192;DHT22;40101;53.002;6.488;2022-08-21T13:19:24;24.80;93.90
54192;DHT22;40101;53.002;6.488;2022-08-21T13:21:51;24.70;94.20
54192;DHT22;40101;53.002;6.488;2022-08-21T13:24:25;24.60;94.50
54192;DHT22;40101;53.002;6.488;2022-08-21T13:26:51;24.80;94.20
54192;DHT22;40101;53.002;6.488;2022-08-21T13:29:19;24.90;93.40
54192;DHT22;40101;53.002;6.488;2022-08-21T13:31:53;25.10;92.30
54192;DHT22;40101;53.002;6.488;2022-08-21T13:34:22;25.10;92.90
54192;DHT22;40101;53.002;6.488;2022-08-21T13:36:52;25.20;93.30
54192;DHT22;40101;53.002;6.488;2022-08-21T13:39:20;25.40;92.40
54192;DHT22;40101;53.002;6.488;2022-08-21T13:41:49;25.60;92.40
54192;DHT22;40101;53.002;6.488;2022-08-21T13:44:21;26.00;92.20
54192;DHT22;40101;53.002;6.488;2022-08-21T13:46:48;26.10;91.90
54192;DHT22;40101;53.002;6.488;2022-08-21T13:49:17;26.30;90.80
54192;DHT22;40101;53.002;6.488;2022-08-21T13:51:44;26.30;91.10
54192;DHT22;40101;53.002;6.488;2022-08-21T13:54:38;26.40;90.70
54192;DHT22;40101;53.002;6.488;2022-08-21T13:57:19;26.50;89.50
54192;DHT22;40101;53.002;6.488;2022-08-21T13:59:45;26.50;87.50
54192;DHT22;40101;53.002;6.488;2022-08-21T14:02:18;26.50;87.60
54192;DHT22;40101;53.002;6.488;2022-08-21T14:04:55;26.50;86.30
54192;DHT22;40101;53.002;6.488;2022-08-21T14:07:29;26.50;87.90
54192;DHT22;40101;53.002;6.488;2022-08-21T14:10:01;26.50;86.90
54192;DHT22;40101;53.002;6.488;2022-08-21T14:12:41;26.40;86.30
54192;DHT22;40101;53.002;6.488;2022-08-21T14:15:13;26.20;86.80
54192;DHT22;40101;53.002;6.488;2022-08-21T14:17:40;26.40;88.50
54192;DHT22;40101;53.002;6.488;2022-08-21T14:20:09;26.20;86.30
54192;DHT22;40101;53.002;6.488;2022-08-21T14:22:44;26.20;86.90
54192;DHT22;40101;53.002;6.488;2022-08-21T14:25:29;26.20;85.40
54192;DHT22;40101;53.002;6.488;2022-08-21T14:28:03;26.20;84.50
54192;DHT22;40101;53.002;6.488;2022-08-21T14:30:36;26.20;85.60
54192;DHT22;40101;53.002;6.488;2022-08-21T14:33:04;26.10;87.20
54192;DHT22;40101;53.002;6.488;2022-08-21T14:35:34;26.00;86.50
54192;DHT22;40101;53.002;6.488;2022-08-21T14:37:59;26.00;86.40
54192;DHT22;40101;53.002;6.488;2022-08-21T14:40:26;26.00;86.20
54192;DHT22;40101;53.002;6.488;2022-08-21T14:42:52;26.00;86.30
54192;DHT22;40101;53.002;6.488;2022-08-21T14:45:19;26.00;86.00
54192;DHT22;40101;53.002;6.488;2022-08-21T14:47:46;26.00;86.80
54192;DHT22;40101;53.002;6.488;2022-08-21T14:50:13;26.00;86.60
54192;DHT22;40101;53.002;6.488;2022-08-21T14:52:39;26.00;86.30
54192;DHT22;40101;53.002;6.488;2022-08-21T14:55:08;26.00;87.00
54192;DHT22;40101;53.002;6.488;2022-08-21T14:57:40;25.90;88.50
54192;DHT22;40101;53.002;6.488;2022-08-21T15:00:10;25.90;89.90
54192;DHT22;40101;53.002;6.488;2022-08-21T15:02:36;25.80;88.10
54192;DHT22;40101;53.002;6.488;2022-08-21T15:05:03;26.10;89.50
54192;DHT22;40101;53.002;6.488;2022-08-21T15:07:29;26.10;88.20
54192;DHT22;40101;53.002;6.488;2022-08-21T15:09:57;26.10;88.30
54192;DHT22;40101;53.002;6.488;2022-08-21T15:12:23;26.10;88.00
54192;DHT22;40101;53.002;6.488;2022-08-21T15:14:50;26.10;86.80
54192;DHT22;40101;53.002;6.488;2022-08-21T15:17:16;25.80;85.70
54192;DHT22;40101;53.002;6.488;2022-08-21T15:19:42;25.60;86.70
54192;DHT22;40101;53.002;6.488;2022-08-21T15:22:08;25.50;87.10
54192;DHT22;40101;53.002;6.488;2022-08-21T15:24:36;25.50;87.00
54192;DHT22;40101;53.002;6.488;2022-08-21T15:27:04;25.60;86.20
54192;DHT22;40101;53.002;6.488;2022-08-21T15:29:31;25.60;85.20
54192;DHT22;40101;53.002;6.488;2022-08-21T15:32:00;25.60;86.00
54192;DHT22;40101;53.002;6.488;2022-08-21T15:34:28;25.60;84.90
54192;DHT22;40101;53.002;6.488;2022-08-21T15:36:56;25.50;85.10
54192;DHT22;40101;53.002;6.488;2022-08-21T15:39:22;25.50;84.60
54192;DHT22;40101;53.002;6.488;2022-08-21T15:41:48;25.50;85.30
54192;DHT22;40101;53.002;6.488;2022-08-21T15:44:19;25.40;85.90
54192;DHT22;40101;53.002;6.488;2022-08-21T15:46:46;25.50;87.00
54192;DHT22;40101;53.002;6.488;2022-08-21T15:49:11;25.40;86.00
54192;DHT22;40101;53.002;6.488;2022-08-21T15:51:37;25.40;85.70
54192;DHT22;40101;53.002;6.488;2022-08-21T15:54:05;25.40;85.40
54192;DHT22;40101;53.002;6.488;2022-08-21T15:56:50;25.40;87.80
54192;DHT22;40101;53.002;6.488;2022-08-21T15:59:47;25.40;87.60
54192;DHT22;40101;53.002;6.488;2022-08-21T16:02:27;25.40;85.50
54192;DHT22;40101;53.002;6.488;2022-08-21T16:04:53;25.60;87.50
54192;DHT22;40101;53.002;6.488;2022-08-21T16:07:22;25.40;87.20
54192;DHT22;40101;53.002;6.488;2022-08-21T16:09:49;25.50;86.00
54192;DHT22;40101;53.002;6.488;2022-08-21T16:12:25;25.40;85.00
54192;DHT22;40101;53.002;6.488;2022-08-21T16:14:53;25.20;86.00
54192;DHT22;40101;53.002;6.488;2022-08-21T16:17:21;25.20;86.40
54192;DHT22;40101;53.002;6.488;2022-08-21T16:19:50;25.10;87.30
54192;DHT22;40101;53.002;6.488;2022-08-21T16:22:15;25.00;89.10
54192;DHT22;40101;53.002;6.488;2022-08-21T16:24:41;24.90;89.40
54192;DHT22;40101;53.002;6.488;2022-08-21T16:27:07;24.80;89.60
54192;DHT22;40101;53.002;6.488;2022-08-21T16:29:35;24.70;90.10
54192;DHT22;40101;53.002;6.488;2022-08-21T16:32:02;24.60;90.60
54192;DHT22;40101;53.002;6.488;2022-08-21T16:34:28;24.60;90.50
54192;DHT22;40101;53.002;6.488;2022-08-21T16:36:54;24.50;90.00
54192;DHT22;40101;53.002;6.488;2022-08-21T16:39:19;24.50;89.60
54192;DHT22;40101;53.002;6.488;2022-08-21T16:41:47;24.30;90.00
54192;DHT22;40101;53.002;6.488;2022-08-21T16:44:14;24.20;90.00